sensor_id;sensor_type;location;lat;lon;timestamp;pressure;altitude;pressure_sealevel;temperature;humidity
16525;BME280;8375;33.594;-117.718;2023-03-20T00:02:03;100107.41;;;13.10;85.67
16525;BME280;8375;33.594;-117.718;2023-03-20T00:04:32;100123.31;;;13.06;86.48
16525;BME280;8375;33.594;-117.718;2023-03-20T00:07:00;100122.75;;;13.03;86.63
16525;BME280;8375;33.594;-117.718;2023-03-20T00:09:29;100109.03;;;13.01;89.31
16525;BME280;8375;33.594;-117.718;2023-03-20T00:11:58;100108.50;;;12.97;89.68
16525;BME280;8375;33.594;-117.718;2023-03-20T00:14:27;100100.38;;;12.90;85.76
16525;BME280;8375;33.594;-117.718;2023-03-20T00:16:57;100101.75;;;12.75;84.78
16525;BME280;8375;33.594;-117.718;2023-03-20T00:19:27;100096.09;;;12.70;76.44
16525;BME280;8375;33.594;-117.718;2023-03-20T00:21:57;100089.78;;;12.62;73.01
16525;BME280;8375;33.594;-117.718;2023-03-20T00:24:25;100074.44;;;12.59;71.00
16525;BME280;8375;33.594;-117.718;2023-03-20T00:26:54;100083.50;;;12.65;71.19
16525;BME280;8375;33.594;-117.718;2023-03-20T00:29:24;100080.09;;;12.74;73.08
16525;BME280;8375;33.594;-117.718;2023-03-20T00:31:54;100056.91;;;12.81;69.40
16525;BME280;8375;33.594;-117.718;2023-03-20T00:34:26;100034.72;;;12.77;68.54
16525;BME280;8375;33.594;-117.718;2023-03-20T00:36:55;100048.56;;;12.77;72.77
16525;BME280;8375;33.594;-117.718;2023-03-20T00:39:23;100040.75;;;12.77;71.10
16525;BME280;8375;33.594;-117.718;2023-03-20T00:41:54;100042.78;;;12.64;69.07
16525;BME280;8375;33.594;-117.718;2023-03-20T00:44:25;100049.50;;;12.57;70.02
16525;BME280;8375;33.594;-117.718;2023-03-20T00:46:56;100070.50;;;12.65;71.24
16525;BME280;8375;33.594;-117.718;2023-03-20T00:49:29;100079.25;;;12.64;71.35
16525;BME280;8375;33.594;-117.718;2023-03-20T00:51:58;100069.78;;;12.63;69.83
16525;BME280;8375;33.594;-117.718;2023-03-20T00:54:27;100067.31;;;12.61;70.49
16525;BME280;8375;33.594;-117.718;2023-03-20T00:56:58;100078.16;;;12.57;71.15
16525;BME280;8375;33.594;-117.718;2023-03-20T00:59:30;100085.69;;;12.60;72.65
16525;BME280;8375;33.594;-117.718;2023-03-20T01:01:59;100086.06;;;12.55;70.81
16525;BME280;8375;33.594;-117.718;2023-03-20T01:04:34;100099.66;;;12.59;74.07
16525;BME280;8375;33.594;-117.718;2023-03-20T01:07:03;100080.59;;;12.58;71.00
16525;BME280;8375;33.594;-117.718;2023-03-20T01:09:32;100074.84;;;12.55;72.57
16525;BME280;8375;33.594;-117.718;2023-03-20T01:12:01;100081.56;;;12.47;72.01
16525;BME280;8375;33.594;-117.718;2023-03-20T01:14:30;100101.41;;;12.49;74.17
16525;BME280;8375;33.594;-117.718;2023-03-20T01:16:59;100111.00;;;12.48;73.44
16525;BME280;8375;33.594;-117.718;2023-03-20T01:19:29;100112.66;;;12.49;71.99
16525;BME280;8375;33.594;-117.718;2023-03-20T01:21:58;100116.91;;;12.50;72.21
16525;BME280;8375;33.594;-117.718;2023-03-20T01:24:28;100127.72;;;12.55;73.70
16525;BME280;8375;33.594;-117.718;2023-03-20T01:26:56;100130.50;;;12.54;71.56
16525;BME280;8375;33.594;-117.718;2023-03-20T01:29:29;100119.28;;;12.63;74.96
16525;BME280;8375;33.594;-117.718;2023-03-20T01:31:58;100126.34;;;12.51;73.44
16525;BME280;8375;33.594;-117.718;2023-03-20T01:34:27;100139.47;;;12.40;76.77
16525;BME280;8375;33.594;-117.718;2023-03-20T01:36:57;100151.63;;;12.29;78.08
16525;BME280;8375;33.594;-117.718;2023-03-20T01:39:30;100150.72;;;12.09;78.60
16525;BME280;8375;33.594;-117.718;2023-03-20T01:42:00;100153.69;;;12.05;82.11
16525;BME280;8375;33.594;-117.718;2023-03-20T01:44:32;100159.78;;;11.94;81.51
16525;BME280;8375;33.594;-117.718;2023-03-20T01:47:02;100129.41;;;11.73;82.99
16525;BME280;8375;33.594;-117.718;2023-03-20T01:52:40;100121.91;;;11.58;86.51
16525;BME280;8375;33.594;-117.718;2023-03-20T01:55:08;100112.72;;;11.54;88.63
16525;BME280;8375;33.594;-117.718;2023-03-20T01:57:37;100113.34;;;11.47;90.70
16525;BME280;8375;33.594;-117.718;2023-03-20T02:00:13;100118.22;;;11.40;90.96
16525;BME280;8375;33.594;-117.718;2023-03-20T02:02:45;100119.28;;;11.37;92.64
16525;BME280;8375;33.594;-117.718;2023-03-20T02:05:18;100108.19;;;11.35;93.84
16525;BME280;8375;33.594;-117.718;2023-03-20T02:07:59;100102.22;;;11.23;94.43
16525;BME280;8375;33.594;-117.718;2023-03-20T02:10:30;100099.94;;;11.09;96.71
16525;BME280;8375;33.594;-117.718;2023-03-20T02:12:59;100102.88;;;11.04;97.52
16525;BME280;8375;33.594;-117.718;2023-03-20T02:15:29;100105.88;;;10.99;98.45
16525;BME280;8375;33.594;-117.718;2023-03-20T02:17:58;100098.19;;;10.98;98.73
16525;BME280;8375;33.594;-117.718;2023-03-20T02:20:36;100067.97;;;10.97;99.87
16525;BME280;8375;33.594;-117.718;2023-03-20T02:26:25;100080.75;;;10.89;100.00
16525;BME280;8375;33.594;-117.718;2023-03-20T02:29:31;100088.66;;;10.87;100.00
16525;BME280;8375;33.594;-117.718;2023-03-20T02:38:22;100096.81;;;10.82;100.00
16525;BME280;8375;33.594;-117.718;2023-03-20T02:41:00;100084.28;;;10.88;100.00
16525;BME280;8375;33.594;-117.718;2023-03-20T02:43:40;100077.69;;;10.83;100.00
16525;BME280;8375;33.594;-117.718;2023-03-20T02:46:16;100085.94;;;10.89;100.00
16525;BME280;8375;33.594;-117.718;2023-03-20T02:48:52;100093.47;;;10.92;100.00
16525;BME280;8375;33.594;-117.718;2023-03-20T02:51:26;100083.94;;;10.92;100.00
16525;BME280;8375;33.594;-117.718;2023-03-20T02:54:06;100083.34;;;10.89;100.00
16525;BME280;8375;33.594;-117.718;2023-03-20T02:56:45;100082.78;;;10.85;100.00
16525;BME280;8375;33.594;-117.718;2023-03-20T02:59:23;100093.72;;;10.89;100.00
16525;BME280;8375;33.594;-117.718;2023-03-20T03:02:03;100097.88;;;10.91;100.00
16525;BME280;8375;33.594;-117.718;2023-03-20T03:04:36;100106.00;;;10.86;100.00
16525;BME280;8375;33.594;-117.718;2023-03-20T03:07:06;100115.44;;;10.88;100.00
16525;BME280;8375;33.594;-117.718;2023-03-20T03:09:41;100117.81;;;10.91;100.00
16525;BME280;8375;33.594;-117.718;2023-03-20T03:12:14;100116.53;;;10.85;100.00
16525;BME280;8375;33.594;-117.718;2023-03-20T03:14:46;100110.16;;;10.89;100.00
16525;BME280;8375;33.594;-117.718;2023-03-20T03:17:17;100094.31;;;10.92;100.00
16525;BME280;8375;33.594;-117.718;2023-03-20T03:19:50;100091.72;;;10.92;100.00
16525;BME280;8375;33.594;-117.718;2023-03-20T03:22:20;100078.84;;;10.91;100.00
16525;BME280;8375;33.594;-117.718;2023-03-20T03:24:52;100096.69;;;10.84;100.00
16525;BME280;8375;33.594;-117.718;2023-03-20T03:27:23;100097.66;;;10.83;100.00
16525;BME280;8375;33.594;-117.718;2023-03-20T03:29:55;100108.50;;;10.88;100.00
16525;BME280;8375;33.594;-117.718;2023-03-20T03:32:27;100110.72;;;10.93;100.00
16525;BME280;8375;33.594;-117.718;2023-03-20T03:34:57;100102.22;;;10.91;100.00
16525;BME280;8375;33.594;-117.718;2023-03-20T03:37:36;100114.84;;;10.95;100.00
16525;BME280;8375;33.594;-117.718;2023-03-20T03:40:18;100127.00;;;10.95;100.00
16525;BME280;8375;33.594;-117.718;2023-03-20T03:42:54;100129.59;;;10.95;100.00
16525;BME280;8375;33.594;-117.718;2023-03-20T03:45:28;100137.84;;;11.00;100.00
16525;BME280;8375;33.594;-117.718;2023-03-20T03:48:02;100148.47;;;10.97;100.00
16525;BME280;8375;33.594;-117.718;2023-03-20T03:50:36;100141.75;;;11.06;100.00
16525;BME280;8375;33.594;-117.718;2023-03-20T03:53:12;100137.09;;;11.09;100.00
16525;BME280;8375;33.594;-117.718;2023-03-20T03:55:46;100132.38;;;11.14;100.00
16525;BME280;8375;33.594;-117.718;2023-03-20T03:58:18;100146.75;;;11.19;100.00
16525;BME280;8375;33.594;-117.718;2023-03-20T04:00:49;100159.41;;;11.23;100.00
16525;BME280;8375;33.594;-117.718;2023-03-20T04:03:23;100164.84;;;11.20;100.00
16525;BME280;8375;33.594;-117.718;2023-03-20T04:05:54;100172.25;;;11.25;100.00
16525;BME280;8375;33.594;-117.718;2023-03-20T04:08:24;100164.91;;;11.30;100.00
16525;BME280;8375;33.594;-117.718;2023-03-20T04:10:54;100148.38;;;11.31;100.00
16525;BME280;8375;33.594;-117.718;2023-03-20T04:13:23;100165.75;;;11.30;100.00
16525;BME280;8375;33.594;-117.718;2023-03-20T04:15:52;100160.31;;;11.34;100.00
16525;BME280;8375;33.594;-117.718;2023-03-20T04:18:20;100149.91;;;11.34;100.00
16525;BME280;8375;33.594;-117.718;2023-03-20T04:20:49;100149.66;;;11.37;100.00
16525;BME280;8375;33.594;-117.718;2023-03-20T04:23:19;100142.28;;;11.21;100.00
16525;BME280;8375;33.594;-117.718;2023-03-20T04:25:48;100131.75;;;11.22;100.00
16525;BME280;8375;33.594;-117.718;2023-03-20T04:28:19;100136.13;;;11.22;100.00
16525;BME280;8375;33.594;-117.718;2023-03-20T04:30:52;100136.97;;;11.22;100.00
16525;BME280;8375;33.594;-117.718;2023-03-20T04:33:20;100143.56;;;11.26;100.00
16525;BME280;8375;33.594;-117.718;2023-03-20T04:35:49;100143.31;;;11.29;100.00
16525;BME280;8375;33.594;-117.718;2023-03-20T04:38:19;100135.63;;;11.28;100.00
16525;BME280;8375;33.594;-117.718;2023-03-20T04:40:48;100128.44;;;11.32;100.00
16525;BME280;8375;33.594;-117.718;2023-03-20T04:43:19;100118.28;;;11.28;100.00
16525;BME280;8375;33.594;-117.718;2023-03-20T04:45:48;100115.44;;;11.32;100.00
16525;BME280;8375;33.594;-117.718;2023-03-20T04:48:17;100115.78;;;11.27;100.00
16525;BME280;8375;33.594;-117.718;2023-03-20T04:50:45;100126.53;;;11.34;100.00
16525;BME280;8375;33.594;-117.718;2023-03-20T04:53:16;100130.63;;;11.36;100.00
16525;BME280;8375;33.594;-117.718;2023-03-20T04:55:45;100137.13;;;11.42;100.00
16525;BME280;8375;33.594;-117.718;2023-03-20T04:58:18;100152.72;;;11.42;100.00
16525;BME280;8375;33.594;-117.718;2023-03-20T05:00:46;100165.31;;;11.47;100.00
16525;BME280;8375;33.594;-117.718;2023-03-20T05:03:15;100159.06;;;11.49;100.00
16525;BME280;8375;33.594;-117.718;2023-03-20T05:05:44;100161.53;;;11.51;100.00
16525;BME280;8375;33.594;-117.718;2023-03-20T05:08:12;100158.22;;;11.49;100.00
16525;BME280;8375;33.594;-117.718;2023-03-20T05:10:41;100142.63;;;11.49;100.00
16525;BME280;8375;33.594;-117.718;2023-03-20T05:13:10;100131.41;;;11.48;100.00
16525;BME280;8375;33.594;-117.718;2023-03-20T05:15:40;100125.72;;;11.54;100.00
16525;BME280;8375;33.594;-117.718;2023-03-20T05:18:09;100116.97;;;11.55;100.00
16525;BME280;8375;33.594;-117.718;2023-03-20T05:20:37;100126.03;;;11.61;100.00
16525;BME280;8375;33.594;-117.718;2023-03-20T05:23:06;100137.13;;;11.63;100.00
16525;BME280;8375;33.594;-117.718;2023-03-20T05:25:35;100141.97;;;11.68;100.00
16525;BME280;8375;33.594;-117.718;2023-03-20T05:28:04;100141.69;;;11.71;100.00
16525;BME280;8375;33.594;-117.718;2023-03-20T05:30:32;100156.59;;;11.69;100.00
16525;BME280;8375;33.594;-117.718;2023-03-20T05:33:03;100158.81;;;11.73;100.00
16525;BME280;8375;33.594;-117.718;2023-03-20T05:35:31;100155.41;;;11.73;100.00
16525;BME280;8375;33.594;-117.718;2023-03-20T05:38:00;100143.09;;;11.75;100.00
16525;BME280;8375;33.594;-117.718;2023-03-20T05:40:29;100121.47;;;11.74;100.00
16525;BME280;8375;33.594;-117.718;2023-03-20T05:42:57;100099.59;;;11.77;100.00
16525;BME280;8375;33.594;-117.718;2023-03-20T05:45:26;100080.97;;;11.82;100.00
16525;BME280;8375;33.594;-117.718;2023-03-20T05:47:55;100077.69;;;11.80;100.00
16525;BME280;8375;33.594;-117.718;2023-03-20T05:50:25;100079.72;;;11.76;100.00
16525;BME280;8375;33.594;-117.718;2023-03-20T05:52:54;100103.13;;;11.76;100.00
16525;BME280;8375;33.594;-117.718;2023-03-20T05:55:23;100110.00;;;11.77;100.00
16525;BME280;8375;33.594;-117.718;2023-03-20T05:57:51;100099.97;;;11.72;100.00
16525;BME280;8375;33.594;-117.718;2023-03-20T06:00:21;100077.94;;;11.77;100.00
16525;BME280;8375;33.594;-117.718;2023-03-20T06:02:50;100089.88;;;11.79;100.00
16525;BME280;8375;33.594;-117.718;2023-03-20T06:05:18;100113.28;;;11.79;100.00
16525;BME280;8375;33.594;-117.718;2023-03-20T06:07:49;100122.47;;;11.83;100.00
16525;BME280;8375;33.594;-117.718;2023-03-20T06:10:17;100112.78;;;11.85;100.00
16525;BME280;8375;33.594;-117.718;2023-03-20T06:12:46;100134.28;;;11.87;100.00
16525;BME280;8375;33.594;-117.718;2023-03-20T06:15:15;100146.44;;;11.87;100.00
16525;BME280;8375;33.594;-117.718;2023-03-20T06:17:44;100153.44;;;11.86;100.00
16525;BME280;8375;33.594;-117.718;2023-03-20T06:20:13;100147.97;;;11.89;100.00
16525;BME280;8375;33.594;-117.718;2023-03-20T06:22:41;100143.31;;;11.93;100.00
16525;BME280;8375;33.594;-117.718;2023-03-20T06:25:12;100144.16;;;11.94;100.00
16525;BME280;8375;33.594;-117.718;2023-03-20T06:27:41;100113.22;;;11.91;100.00
16525;BME280;8375;33.594;-117.718;2023-03-20T06:30:10;100101.41;;;11.86;100.00
16525;BME280;8375;33.594;-117.718;2023-03-20T06:32:39;100083.75;;;11.90;100.00
16525;BME280;8375;33.594;-117.718;2023-03-20T06:35:08;100061.72;;;11.84;100.00
16525;BME280;8375;33.594;-117.718;2023-03-20T06:37:37;100067.03;;;11.83;100.00
16525;BME280;8375;33.594;-117.718;2023-03-20T06:40:07;100072.38;;;11.81;100.00
16525;BME280;8375;33.594;-117.718;2023-03-20T06:42:39;100059.63;;;11.78;100.00
16525;BME280;8375;33.594;-117.718;2023-03-20T06:45:08;100057.97;;;11.77;100.00
16525;BME280;8375;33.594;-117.718;2023-03-20T06:47:37;100061.53;;;11.76;100.00
16525;BME280;8375;33.594;-117.718;2023-03-20T06:50:06;100072.75;;;11.77;100.00
16525;BME280;8375;33.594;-117.718;2023-03-20T06:52:36;100079.59;;;11.78;100.00
16525;BME280;8375;33.594;-117.718;2023-03-20T06:55:05;100079.22;;;11.82;100.00
16525;BME280;8375;33.594;-117.718;2023-03-20T06:57:34;100074.03;;;11.82;100.00
16525;BME280;8375;33.594;-117.718;2023-03-20T07:00:06;100073.75;;;11.85;100.00
16525;BME280;8375;33.594;-117.718;2023-03-20T07:02:35;100079.91;;;11.84;100.00
16525;BME280;8375;33.594;-117.718;2023-03-20T07:05:05;100091.97;;;11.85;100.00
16525;BME280;8375;33.594;-117.718;2023-03-20T07:07:33;100104.81;;;11.87;100.00
16525;BME280;8375;33.594;-117.718;2023-03-20T07:10:03;100110.59;;;11.91;100.00
16525;BME280;8375;33.594;-117.718;2023-03-20T07:12:31;100108.25;;;11.87;100.00
16525;BME280;8375;33.594;-117.718;2023-03-20T07:15:00;100101.84;;;11.92;100.00
16525;BME280;8375;33.594;-117.718;2023-03-20T07:17:31;100098.16;;;11.94;100.00
16525;BME280;8375;33.594;-117.718;2023-03-20T07:19:59;100095.69;;;11.93;100.00
16525;BME280;8375;33.594;-117.718;2023-03-20T07:22:30;100106.81;;;11.95;100.00
16525;BME280;8375;33.594;-117.718;2023-03-20T07:24:59;100122.41;;;11.95;100.00
16525;BME280;8375;33.594;-117.718;2023-03-20T07:27:28;100122.41;;;11.95;100.00
16525;BME280;8375;33.594;-117.718;2023-03-20T07:29:57;100113.38;;;11.99;100.00
16525;BME280;8375;33.594;-117.718;2023-03-20T07:32:26;100105.47;;;12.00;100.00
16525;BME280;8375;33.594;-117.718;2023-03-20T07:34:56;100091.41;;;12.03;100.00
16525;BME280;8375;33.594;-117.718;2023-03-20T07:37:25;100095.91;;;12.01;100.00
16525;BME280;8375;33.594;-117.718;2023-03-20T07:39:53;100082.97;;;11.99;100.00
16525;BME280;8375;33.594;-117.718;2023-03-20T07:42:22;100082.97;;;11.99;100.00
16525;BME280;8375;33.594;-117.718;2023-03-20T07:44:51;100080.53;;;11.98;100.00
16525;BME280;8375;33.594;-117.718;2023-03-20T07:47:20;100088.78;;;12.03;100.00
16525;BME280;8375;33.594;-117.718;2023-03-20T07:49:49;100082.38;;;12.07;100.00
16525;BME280;8375;33.594;-117.718;2023-03-20T07:52:20;100084.03;;;12.08;100.00
16525;BME280;8375;33.594;-117.718;2023-03-20T07:54:48;100093.75;;;12.06;100.00
16525;BME280;8375;33.594;-117.718;2023-03-20T07:57:17;100072.78;;;12.08;100.00
16525;BME280;8375;33.594;-117.718;2023-03-20T07:59:45;100072.78;;;12.08;100.00
16525;BME280;8375;33.594;-117.718;2023-03-20T08:02:15;100067.03;;;12.04;100.00
16525;BME280;8375;33.594;-117.718;2023-03-20T08:04:44;100073.72;;;12.07;100.00
16525;BME280;8375;33.594;-117.718;2023-03-20T08:07:13;100078.94;;;12.07;100.00
16525;BME280;8375;33.594;-117.718;2023-03-20T08:09:43;100072.94;;;12.06;100.00
16525;BME280;8375;33.594;-117.718;2023-03-20T08:12:12;100070.31;;;12.06;100.00
16525;BME280;8375;33.594;-117.718;2023-03-20T08:14:42;100063.72;;;12.02;100.00
16525;BME280;8375;33.594;-117.718;2023-03-20T08:17:11;100060.28;;;12.01;100.00
16525;BME280;8375;33.594;-117.718;2023-03-20T08:19:40;100066.34;;;12.02;100.00
16525;BME280;8375;33.594;-117.718;2023-03-20T08:22:09;100063.59;;;12.03;100.00
16525;BME280;8375;33.594;-117.718;2023-03-20T08:24:38;100058.97;;;12.07;100.00
16525;BME280;8375;33.594;-117.718;2023-03-20T08:27:08;100057.31;;;12.06;100.00
16525;BME280;8375;33.594;-117.718;2023-03-20T08:29:37;100043.72;;;12.02;100.00
16525;BME280;8375;33.594;-117.718;2023-03-20T08:32:05;100044.84;;;12.00;100.00
16525;BME280;8375;33.594;-117.718;2023-03-20T08:34:34;100040.44;;;12.00;100.00
16525;BME280;8375;33.594;-117.718;2023-03-20T08:37:03;100054.03;;;12.04;100.00
16525;BME280;8375;33.594;-117.718;2023-03-20T08:39:33;100065.66;;;12.10;100.00
16525;BME280;8375;33.594;-117.718;2023-03-20T08:42:02;100073.47;;;12.10;100.00
16525;BME280;8375;33.594;-117.718;2023-03-20T08:44:32;100088.97;;;12.11;100.00
16525;BME280;8375;33.594;-117.718;2023-03-20T08:47:01;100089.41;;;12.16;100.00
16525;BME280;8375;33.594;-117.718;2023-03-20T08:49:31;100094.34;;;12.20;100.00
16525;BME280;8375;33.594;-117.718;2023-03-20T08:51:59;100091.03;;;12.17;100.00
16525;BME280;8375;33.594;-117.718;2023-03-20T08:54:28;100107.47;;;12.18;100.00
16525;BME280;8375;33.594;-117.718;2023-03-20T08:56:57;100115.97;;;12.20;100.00
16525;BME280;8375;33.594;-117.718;2023-03-20T08:59:25;100115.69;;;12.23;100.00
16525;BME280;8375;33.594;-117.718;2023-03-20T09:01:55;100124.63;;;12.21;100.00
16525;BME280;8375;33.594;-117.718;2023-03-20T09:04:24;100130.50;;;12.23;100.00
16525;BME280;8375;33.594;-117.718;2023-03-20T09:06:53;100121.75;;;12.24;100.00
16525;BME280;8375;33.594;-117.718;2023-03-20T09:09:22;100116.53;;;12.24;100.00
16525;BME280;8375;33.594;-117.718;2023-03-20T09:11:55;100099.53;;;12.20;100.00
16525;BME280;8375;33.594;-117.718;2023-03-20T09:14:24;100103.38;;;12.15;100.00
16525;BME280;8375;33.594;-117.718;2023-03-20T09:16:55;100102.53;;;12.15;100.00
16525;BME280;8375;33.594;-117.718;2023-03-20T09:19:24;100089.66;;;12.13;100.00
16525;BME280;8375;33.594;-117.718;2023-03-20T09:21:52;100119.66;;;12.17;100.00
16525;BME280;8375;33.594;-117.718;2023-03-20T09:24:21;100111.59;;;12.21;100.00
16525;BME280;8375;33.594;-117.718;2023-03-20T09:26:50;100099.28;;;12.23;100.00
16525;BME280;8375;33.594;-117.718;2023-03-20T09:29:18;100098.44;;;12.22;100.00
16525;BME280;8375;33.594;-117.718;2023-03-20T09:31:47;100094.06;;;12.23;100.00
16525;BME280;8375;33.594;-117.718;2023-03-20T09:34:17;100082.13;;;12.20;100.00
16525;BME280;8375;33.594;-117.718;2023-03-20T09:36:46;100077.34;;;12.15;100.00
16525;BME280;8375;33.594;-117.718;2023-03-20T09:39:14;100073.09;;;12.14;100.00
16525;BME280;8375;33.594;-117.718;2023-03-20T09:41:47;100066.78;;;12.17;100.00
16525;BME280;8375;33.594;-117.718;2023-03-20T09:44:24;100058.28;;;12.15;100.00
16525;BME280;8375;33.594;-117.718;2023-03-20T09:47:08;100032.28;;;12.15;100.00
16525;BME280;8375;33.594;-117.718;2023-03-20T09:49:46;100017.75;;;12.12;100.00
16525;BME280;8375;33.594;-117.718;2023-03-20T09:52:20;100014.31;;;12.12;100.00
16525;BME280;8375;33.594;-117.718;2023-03-20T09:54:52;99992.16;;;12.17;100.00
16525;BME280;8375;33.594;-117.718;2023-03-20T09:57:24;100005.28;;;12.16;100.00
16525;BME280;8375;33.594;-117.718;2023-03-20T09:59:56;100020.38;;;12.12;100.00
16525;BME280;8375;33.594;-117.718;2023-03-20T10:02:37;100014.19;;;12.13;100.00
16525;BME280;8375;33.594;-117.718;2023-03-20T10:05:18;100020.38;;;12.12;100.00
16525;BME280;8375;33.594;-117.718;2023-03-20T10:07:47;100011.59;;;12.13;100.00
16525;BME280;8375;33.594;-117.718;2023-03-20T10:10:17;100015.16;;;12.12;100.00
16525;BME280;8375;33.594;-117.718;2023-03-20T10:12:53;99996.25;;;12.10;100.00
16525;BME280;8375;33.594;-117.718;2023-03-20T10:15:37;99992.28;;;12.06;100.00
16525;BME280;8375;33.594;-117.718;2023-03-20T10:18:16;99986.13;;;12.07;100.00
16525;BME280;8375;33.594;-117.718;2023-03-20T10:20:54;99963.91;;;12.03;100.00
16525;BME280;8375;33.594;-117.718;2023-03-20T10:23:31;99976.94;;;12.03;100.00
16525;BME280;8375;33.594;-117.718;2023-03-20T10:26:05;99988.28;;;12.02;100.00
16525;BME280;8375;33.594;-117.718;2023-03-20T10:28:38;99986.91;;;12.08;100.00
16525;BME280;8375;33.594;-117.718;2023-03-20T10:31:22;99978.31;;;12.07;100.00
16525;BME280;8375;33.594;-117.718;2023-03-20T10:34:02;99965.56;;;12.04;100.00
16525;BME280;8375;33.594;-117.718;2023-03-20T10:36:49;99967.59;;;12.00;100.00
16525;BME280;8375;33.594;-117.718;2023-03-20T10:39:31;99963.31;;;11.99;100.00
16525;BME280;8375;33.594;-117.718;2023-03-20T10:42:06;99961.44;;;12.01;100.00
16525;BME280;8375;33.594;-117.718;2023-03-20T10:44:40;99959.78;;;12.00;100.00
16525;BME280;8375;33.594;-117.718;2023-03-20T10:47:14;99963.66;;;12.06;100.00
16525;BME280;8375;33.594;-117.718;2023-03-20T10:49:45;99957.22;;;12.10;100.00
16525;BME280;8375;33.594;-117.718;2023-03-20T10:52:19;99949.69;;;12.07;100.00
16525;BME280;8375;33.594;-117.718;2023-03-20T10:54:52;99943.53;;;12.08;100.00
16525;BME280;8375;33.594;-117.718;2023-03-20T10:57:23;99932.69;;;12.03;100.00
16525;BME280;8375;33.594;-117.718;2023-03-20T10:59:54;99950.38;;;12.09;100.00
16525;BME280;8375;33.594;-117.718;2023-03-20T11:02:26;99976.56;;;12.17;100.00
16525;BME280;8375;33.594;-117.718;2023-03-20T11:04:56;99989.16;;;12.22;100.00
16525;BME280;8375;33.594;-117.718;2023-03-20T11:07:32;100001.19;;;12.23;100.00
16525;BME280;8375;33.594;-117.718;2023-03-20T11:10:10;99998.34;;;12.26;100.00
16525;BME280;8375;33.594;-117.718;2023-03-20T11:12:40;99984.50;;;12.26;100.00
16525;BME280;8375;33.594;-117.718;2023-03-20T11:15:22;99991.63;;;12.24;100.00
16525;BME280;8375;33.594;-117.718;2023-03-20T11:17:53;99974.22;;;12.24;100.00
16525;BME280;8375;33.594;-117.718;2023-03-20T11:20:23;99985.47;;;12.25;100.00
16525;BME280;8375;33.594;-117.718;2023-03-20T11:23:00;99988.34;;;12.22;100.00
16525;BME280;8375;33.594;-117.718;2023-03-20T11:25:31;99973.00;;;12.18;100.00
16525;BME280;8375;33.594;-117.718;2023-03-20T11:28:29;99954.09;;;12.16;100.00
16525;BME280;8375;33.594;-117.718;2023-03-20T11:31:01;99962.16;;;12.13;100.00
16525;BME280;8375;33.594;-117.718;2023-03-20T11:33:32;99959.69;;;12.12;100.00
16525;BME280;8375;33.594;-117.718;2023-03-20T11:36:10;99950.66;;;12.06;100.00
16525;BME280;8375;33.594;-117.718;2023-03-20T11:38:45;99948.13;;;11.95;100.00
16525;BME280;8375;33.594;-117.718;2023-03-20T11:41:19;99958.13;;;11.99;100.00
16525;BME280;8375;33.594;-117.718;2023-03-20T11:43:50;99960.88;;;11.98;100.00
16525;BME280;8375;33.594;-117.718;2023-03-20T11:46:20;99968.44;;;12.01;100.00
16525;BME280;8375;33.594;-117.718;2023-03-20T11:49:03;99971.72;;;12.03;100.00
16525;BME280;8375;33.594;-117.718;2023-03-20T11:51:35;99969.25;;;12.01;100.00
16525;BME280;8375;33.594;-117.718;2023-03-20T11:54:12;99982.94;;;12.03;100.00
16525;BME280;8375;33.594;-117.718;2023-03-20T11:56:52;99990.63;;;12.05;100.00
16525;BME280;8375;33.594;-117.718;2023-03-20T11:59:21;99999.13;;;12.07;100.00
16525;BME280;8375;33.594;-117.718;2023-03-20T12:01:53;100005.28;;;12.06;100.00
16525;BME280;8375;33.594;-117.718;2023-03-20T12:04:27;99998.97;;;12.09;100.00
16525;BME280;8375;33.594;-117.718;2023-03-20T12:06:58;99991.75;;;12.12;100.00
16525;BME280;8375;33.594;-117.718;2023-03-20T12:09:37;99962.16;;;12.13;100.00
16525;BME280;8375;33.594;-117.718;2023-03-20T12:12:16;99973.53;;;12.12;100.00
16525;BME280;8375;33.594;-117.718;2023-03-20T12:14:54;99977.09;;;12.11;100.00
16525;BME280;8375;33.594;-117.718;2023-03-20T12:17:32;99987.06;;;12.06;100.00
16525;BME280;8375;33.594;-117.718;2023-03-20T12:20:06;99990.34;;;12.08;100.00
16525;BME280;8375;33.594;-117.718;2023-03-20T12:22:46;99992.00;;;12.09;100.00
16525;BME280;8375;33.594;-117.718;2023-03-20T12:25:21;100010.47;;;12.06;100.00
16525;BME280;8375;33.594;-117.718;2023-03-20T12:28:00;100024.03;;;12.10;100.00
16525;BME280;8375;33.594;-117.718;2023-03-20T12:30:37;100035.97;;;12.12;100.00
16525;BME280;8375;33.594;-117.718;2023-03-20T12:33:15;100037.63;;;12.13;100.00
16525;BME280;8375;33.594;-117.718;2023-03-20T12:35:48;100030.06;;;12.10;100.00
16525;BME280;8375;33.594;-117.718;2023-03-20T12:38:25;100025.81;;;12.09;100.00
16525;BME280;8375;33.594;-117.718;2023-03-20T12:41:02;100013.50;;;12.11;100.00
16525;BME280;8375;33.594;-117.718;2023-03-20T12:43:42;99992.38;;;12.05;100.00
16525;BME280;8375;33.594;-117.718;2023-03-20T12:46:26;99994.19;;;12.04;100.00
16525;BME280;8375;33.594;-117.718;2023-03-20T12:49:07;99984.41;;;11.96;100.00
16525;BME280;8375;33.594;-117.718;2023-03-20T12:51:49;99988.34;;;11.91;100.00
16525;BME280;8375;33.594;-117.718;2023-03-20T12:54:32;99985.06;;;11.88;100.00
16525;BME280;8375;33.594;-117.718;2023-03-20T12:57:15;99974.50;;;11.80;100.00
16525;BME280;8375;33.594;-117.718;2023-03-20T12:59:56;99970.78;;;11.73;100.00